createdAt,value
2022-11-04T00:00:01.223Z,995.05
2022-11-04T00:01:01.240Z,995.05
2022-11-04T00:02:01.259Z,995.07
2022-11-04T00:03:01.182Z,995.08
2022-11-04T00:04:01.158Z,995.07
2022-11-04T00:05:01.226Z,995.09
2022-11-04T00:06:01.178Z,995.09
2022-11-04T00:07:01.136Z,995.10
2022-11-04T00:08:01.120Z,995.12
2022-11-04T00:09:01.106Z,995.12
2022-11-04T00:10:01.132Z,995.16
2022-11-04T00:11:01.099Z,995.20
2022-11-04T00:12:01.074Z,995.19
2022-11-04T00:13:01.072Z,995.22
2022-11-04T00:14:01.067Z,995.19
2022-11-04T00:15:01.052Z,995.17
2022-11-04T00:16:01.062Z,995.16
2022-11-04T00:17:01.038Z,995.14
2022-11-04T00:18:01.033Z,995.14
2022-11-04T00:19:01.023Z,995.16
2022-11-04T00:20:01.004Z,995.13
2022-11-04T00:21:01.019Z,995.11
2022-11-04T00:22:01.007Z,995.12
2022-11-04T00:23:01.019Z,995.11
2022-11-04T00:24:00.945Z,995.11
2022-11-04T00:25:00.953Z,995.11
2022-11-04T00:26:00.986Z,995.12
2022-11-04T00:27:00.922Z,995.10
2022-11-04T00:28:00.923Z,995.11
2022-11-04T00:29:00.908Z,995.11
2022-11-04T00:30:00.912Z,995.12
2022-11-04T00:31:00.920Z,995.14
2022-11-04T00:32:00.862Z,995.14
2022-11-04T00:33:00.857Z,995.13
2022-11-04T00:34:00.872Z,995.12
2022-11-04T00:35:00.854Z,995.13
2022-11-04T00:36:00.839Z,995.15
2022-11-04T00:37:00.855Z,995.15
2022-11-04T00:38:00.776Z,995.17
2022-11-04T00:39:00.811Z,995.18
2022-11-04T00:40:00.791Z,995.17
2022-11-04T00:41:00.804Z,995.16
2022-11-04T00:42:00.805Z,995.12
2022-11-04T00:43:00.876Z,995.09
2022-11-04T00:44:00.752Z,995.05
2022-11-04T00:45:00.819Z,995.03
2022-11-04T00:46:00.726Z,995.00
2022-11-04T00:47:00.737Z,995.02
2022-11-04T00:48:00.700Z,995.03
2022-11-04T00:49:00.699Z,995.05
2022-11-04T00:50:00.711Z,995.07
2022-11-04T00:51:00.717Z,995.08
2022-11-04T00:52:00.698Z,995.09
2022-11-04T00:53:00.654Z,995.14
2022-11-04T00:54:00.647Z,995.18
2022-11-04T00:55:00.649Z,995.23
2022-11-04T00:56:00.621Z,995.26
2022-11-04T00:57:00.653Z,995.29
2022-11-04T00:58:00.603Z,995.31
2022-11-04T00:59:00.611Z,995.31
2022-11-04T01:00:00.582Z,995.36
2022-11-04T01:01:00.609Z,995.41
2022-11-04T01:02:00.803Z,995.46
2022-11-04T01:03:00.575Z,995.49
2022-11-04T01:04:00.492Z,995.51
2022-11-04T01:05:00.572Z,995.52
2022-11-04T01:06:00.513Z,995.49
2022-11-04T01:07:00.523Z,995.43
2022-11-04T01:08:00.516Z,995.42
2022-11-04T01:09:00.492Z,995.46
2022-11-04T01:10:00.516Z,995.55
2022-11-04T01:11:00.468Z,995.63
2022-11-04T01:12:00.470Z,995.70
2022-11-04T01:13:00.467Z,995.69
2022-11-04T01:14:00.445Z,995.67
2022-11-04T01:15:00.434Z,995.65
2022-11-04T01:16:00.425Z,995.56
2022-11-04T01:17:00.404Z,995.47
2022-11-04T01:18:00.427Z,995.39
2022-11-04T01:19:00.399Z,995.35
2022-11-04T01:20:00.384Z,995.38
2022-11-04T01:21:00.360Z,995.48
2022-11-04T01:22:00.373Z,995.59
2022-11-04T01:23:00.399Z,995.71
2022-11-04T01:24:00.340Z,995.75
2022-11-04T01:25:00.330Z,995.76
2022-11-04T01:26:00.329Z,995.71
2022-11-04T01:27:00.409Z,995.71
2022-11-04T01:28:00.300Z,995.71
2022-11-04T01:29:00.303Z,995.76
2022-11-04T01:30:00.272Z,995.79
2022-11-04T01:31:00.264Z,995.82
2022-11-04T01:32:00.285Z,995.82
2022-11-04T01:33:00.280Z,995.80
2022-11-04T01:34:00.267Z,995.79
2022-11-04T01:35:00.246Z,995.79
2022-11-04T01:36:00.232Z,995.79
2022-11-04T01:37:00.205Z,995.79
2022-11-04T01:38:00.278Z,995.82
2022-11-04T01:39:00.214Z,995.83
2022-11-04T01:40:00.185Z,995.82
2022-11-04T01:41:00.189Z,995.83
2022-11-04T01:42:00.232Z,995.80
2022-11-04T01:43:00.141Z,995.80
2022-11-04T01:44:00.135Z,995.82
2022-11-04T01:45:00.117Z,995.81
2022-11-04T01:46:00.122Z,995.80
2022-11-04T01:47:00.100Z,995.79
2022-11-04T01:48:00.116Z,995.78
2022-11-04T01:49:00.099Z,995.76
2022-11-04T01:50:00.094Z,995.72
2022-11-04T01:51:00.069Z,995.70
2022-11-04T01:52:00.048Z,995.68
2022-11-04T01:53:00.058Z,995.68
2022-11-04T01:54:00.033Z,995.68
2022-11-04T01:55:00.032Z,995.68
2022-11-04T01:56:00.033Z,995.67
2022-11-04T01:57:00.002Z,995.65
2022-11-04T01:58:00.022Z,995.64
2022-11-04T01:58:59.972Z,995.62
2022-11-04T01:59:59.996Z,995.62
2022-11-04T02:01:00.070Z,995.65
2022-11-04T02:02:00.069Z,995.66
2022-11-04T02:02:59.929Z,995.71
2022-11-04T02:03:59.925Z,995.72
2022-11-04T02:04:59.903Z,995.72
2022-11-04T02:05:59.949Z,995.68
2022-11-04T02:06:59.900Z,995.66
2022-11-04T02:07:59.906Z,995.64
2022-11-04T02:08:59.966Z,995.65
2022-11-04T02:09:59.862Z,995.65
2022-11-04T02:10:59.848Z,995.70
2022-11-04T02:11:59.850Z,995.69
2022-11-04T02:12:59.896Z,995.68
2022-11-04T02:13:59.831Z,995.70
2022-11-04T02:14:59.831Z,995.72
2022-11-04T02:15:59.820Z,995.71
2022-11-04T02:16:59.783Z,995.73
2022-11-04T02:17:59.803Z,995.73
2022-11-04T02:18:59.785Z,995.70
2022-11-04T02:19:59.773Z,995.71
2022-11-04T02:20:59.782Z,995.73
2022-11-04T02:21:59.739Z,995.74
2022-11-04T02:22:59.734Z,995.77
2022-11-04T02:23:59.711Z,995.80
2022-11-04T02:24:59.702Z,995.84
2022-11-04T02:25:59.706Z,995.87
2022-11-04T02:26:59.715Z,995.89
2022-11-04T02:27:59.690Z,995.88
2022-11-04T02:28:59.682Z,995.87
2022-11-04T02:29:59.662Z,995.85
2022-11-04T02:30:59.638Z,995.84
2022-11-04T02:31:59.663Z,995.86
2022-11-04T02:32:59.638Z,995.88
2022-11-04T02:33:59.635Z,995.93
2022-11-04T02:34:59.635Z,995.97
2022-11-04T02:35:59.598Z,996.02
2022-11-04T02:36:59.585Z,996.01
2022-11-04T02:37:59.604Z,996.03
2022-11-04T02:38:59.559Z,996.03
2022-11-04T02:39:59.573Z,996.05
2022-11-04T02:40:59.541Z,996.06
2022-11-04T02:41:59.534Z,996.07
2022-11-04T02:42:59.561Z,996.10
2022-11-04T02:43:59.522Z,996.11
2022-11-04T02:44:59.494Z,996.15
2022-11-04T02:45:59.486Z,996.18
2022-11-04T02:46:59.474Z,996.20
2022-11-04T02:47:59.482Z,996.24
2022-11-04T02:48:59.478Z,996.25
2022-11-04T02:49:59.463Z,996.26
2022-11-04T02:50:59.435Z,996.27
2022-11-04T02:51:59.422Z,996.30
2022-11-04T02:52:59.483Z,996.30
2022-11-04T02:53:59.615Z,996.30
2022-11-04T02:54:59.390Z,996.29
2022-11-04T02:55:59.425Z,996.30
2022-11-04T02:56:59.378Z,996.31
2022-11-04T02:57:59.366Z,996.34
2022-11-04T02:58:59.357Z,996.36
2022-11-04T02:59:59.400Z,996.38
2022-11-04T03:00:59.440Z,996.41
2022-11-04T03:01:59.528Z,996.41
2022-11-04T03:02:59.324Z,996.43
2022-11-04T03:03:59.300Z,996.41
2022-11-04T03:04:59.326Z,996.41
2022-11-04T03:05:59.290Z,996.39
2022-11-04T03:06:59.353Z,996.37
2022-11-04T03:07:59.270Z,996.36
2022-11-04T03:08:59.279Z,996.38
2022-11-04T03:09:59.267Z,996.38
2022-11-04T03:10:59.268Z,996.37
2022-11-04T03:11:59.222Z,996.36
2022-11-04T03:12:59.207Z,996.35
2022-11-04T03:13:59.231Z,996.35
2022-11-04T03:14:59.215Z,996.36
2022-11-04T03:15:59.177Z,996.37
2022-11-04T03:16:59.193Z,996.39
2022-11-04T03:17:59.162Z,996.40
2022-11-04T03:18:59.159Z,996.41
2022-11-04T03:19:59.152Z,996.40
2022-11-04T03:20:59.140Z,996.41
2022-11-04T03:21:59.117Z,996.42
2022-11-04T03:22:59.114Z,996.42
2022-11-04T03:23:59.151Z,996.44
2022-11-04T03:24:59.109Z,996.44
2022-11-04T03:25:59.092Z,996.45
2022-11-04T03:26:59.077Z,996.47
2022-11-04T03:27:59.061Z,996.49
2022-11-04T03:28:59.039Z,996.53
2022-11-04T03:29:58.986Z,996.57
2022-11-04T03:30:59.024Z,996.57
2022-11-04T03:31:59.040Z,996.57
2022-11-04T03:32:59.015Z,996.57
2022-11-04T03:33:59.003Z,996.56
2022-11-04T03:34:58.997Z,996.58
2022-11-04T03:35:58.989Z,996.60
2022-11-04T03:36:59.004Z,996.62
2022-11-04T03:37:58.955Z,996.64
2022-11-04T03:38:58.964Z,996.63
2022-11-04T03:39:58.931Z,996.63
2022-11-04T03:40:58.898Z,996.65
2022-11-04T03:41:58.933Z,996.68
2022-11-04T03:42:58.913Z,996.70
2022-11-04T03:43:58.903Z,996.73
2022-11-04T03:44:58.933Z,996.74
2022-11-04T03:45:58.917Z,996.77
2022-11-04T03:46:58.881Z,996.78
2022-11-04T03:47:58.869Z,996.77
2022-11-04T03:48:58.849Z,996.74
2022-11-04T03:49:58.871Z,996.70
2022-11-04T03:50:58.859Z,996.67
2022-11-04T03:51:58.852Z,996.62
2022-11-04T03:52:58.817Z,996.59
2022-11-04T03:53:58.807Z,996.58
2022-11-04T03:54:58.788Z,996.57
2022-11-04T03:55:58.819Z,996.56
2022-11-04T03:56:58.779Z,996.59
2022-11-04T03:57:58.759Z,996.62
2022-11-04T03:58:58.809Z,996.67
2022-11-04T03:59:58.769Z,996.70
2022-11-04T04:00:58.837Z,996.69
2022-11-04T04:01:58.827Z,996.69
2022-11-04T04:02:58.723Z,996.70
2022-11-04T04:03:58.691Z,996.73
2022-11-04T04:04:58.740Z,996.78
2022-11-04T04:05:58.612Z,996.84
2022-11-04T04:06:58.701Z,996.87
2022-11-04T04:07:58.650Z,996.87
2022-11-04T04:08:58.581Z,996.83
2022-11-04T04:09:58.634Z,996.82
2022-11-04T04:10:58.627Z,996.82
2022-11-04T04:11:58.647Z,996.81
2022-11-04T04:12:58.589Z,996.80
2022-11-04T04:13:58.616Z,996.83
2022-11-04T04:14:58.590Z,996.85
2022-11-04T04:15:58.636Z,996.84
2022-11-04T04:16:58.603Z,996.82
2022-11-04T04:17:58.614Z,996.79
2022-11-04T04:18:58.871Z,996.75
2022-11-04T04:19:58.538Z,996.72
2022-11-04T04:20:58.558Z,996.68
2022-11-04T04:21:58.580Z,996.65
2022-11-04T04:22:58.504Z,996.65
2022-11-04T04:23:58.504Z,996.66
2022-11-04T04:24:58.471Z,996.68
2022-11-04T04:25:58.476Z,996.71
2022-11-04T04:26:58.485Z,996.72
2022-11-04T04:27:58.471Z,996.70
2022-11-04T04:28:58.437Z,996.68
2022-11-04T04:29:58.427Z,996.69
2022-11-04T04:31:00.410Z,996.68
2022-11-04T04:31:58.464Z,996.70
2022-11-04T04:32:58.382Z,996.71
2022-11-04T04:33:58.387Z,996.73
2022-11-04T04:34:58.368Z,996.72
2022-11-04T04:35:58.361Z,996.69
2022-11-04T04:36:58.385Z,996.64
2022-11-04T04:37:58.339Z,996.60
2022-11-04T04:38:58.328Z,996.57
2022-11-04T04:39:58.338Z,996.56
2022-11-04T04:41:58.341Z,996.63
2022-11-04T04:42:58.326Z,996.65
2022-11-04T04:43:58.309Z,996.66
2022-11-04T04:44:58.304Z,996.69
2022-11-04T04:45:58.267Z,996.69
2022-11-04T04:46:58.301Z,996.69
2022-11-04T04:47:58.239Z,996.68
2022-11-04T04:48:58.219Z,996.66
2022-11-04T04:49:58.216Z,996.65
2022-11-04T04:50:58.219Z,996.63
2022-11-04T04:51:58.190Z,996.62
2022-11-04T04:52:58.208Z,996.61
2022-11-04T04:53:58.282Z,996.59
2022-11-04T04:54:58.168Z,996.56
2022-11-04T04:55:58.164Z,996.53
2022-11-04T04:56:58.152Z,996.52
2022-11-04T04:57:58.143Z,996.55
2022-11-04T04:58:58.157Z,996.59
2022-11-04T04:59:58.181Z,996.64
2022-11-04T05:00:58.190Z,996.67
2022-11-04T05:01:58.222Z,996.67
2022-11-04T05:02:58.083Z,996.64
2022-11-04T05:03:58.109Z,996.60
2022-11-04T05:04:57.997Z,996.57
2022-11-04T05:05:58.934Z,996.56
2022-11-04T05:06:58.062Z,996.56
2022-11-04T05:07:58.061Z,996.56
2022-11-04T05:08:58.051Z,996.56
2022-11-04T05:09:58.004Z,996.58
2022-11-04T05:10:58.030Z,996.58
2022-11-04T05:11:57.991Z,996.61
2022-11-04T05:12:57.980Z,996.64
2022-11-04T05:13:57.968Z,996.65
2022-11-04T05:14:57.957Z,996.65
2022-11-04T05:15:57.946Z,996.63
2022-11-04T05:16:57.951Z,996.63
2022-11-04T05:17:57.934Z,996.64
2022-11-04T05:18:57.934Z,996.66
2022-11-04T05:19:57.915Z,996.69
2022-11-04T05:20:57.894Z,996.71
2022-11-04T05:21:57.906Z,996.72
2022-11-04T05:22:57.885Z,996.71
2022-11-04T05:23:57.859Z,996.70
2022-11-04T05:24:57.869Z,996.69
2022-11-04T05:25:57.829Z,996.68
2022-11-04T05:26:57.882Z,996.64
2022-11-04T05:27:57.823Z,996.62
2022-11-04T05:28:57.822Z,996.61
2022-11-04T05:29:57.800Z,996.61
2022-11-04T05:30:57.792Z,996.60
2022-11-04T05:31:57.819Z,996.60
2022-11-04T05:33:01.514Z,996.59
2022-11-04T05:33:57.788Z,996.61
2022-11-04T05:34:57.717Z,996.64
2022-11-04T05:35:57.736Z,996.65
2022-11-04T05:36:57.722Z,996.66
2022-11-04T05:37:57.707Z,996.68
2022-11-04T05:38:57.692Z,996.68
2022-11-04T05:39:57.695Z,996.68
2022-11-04T05:40:57.675Z,996.67
2022-11-04T05:41:57.693Z,996.64
2022-11-04T05:42:57.661Z,996.60
2022-11-04T05:43:57.600Z,996.57
2022-11-04T05:44:57.635Z,996.54
2022-11-04T05:45:57.635Z,996.53
2022-11-04T05:46:57.622Z,996.51
2022-11-04T05:47:57.623Z,996.48
2022-11-04T05:48:57.636Z,996.47
2022-11-04T05:49:57.581Z,996.47
2022-11-04T05:50:57.523Z,996.48
2022-11-04T05:51:57.562Z,996.47
2022-11-04T05:52:57.603Z,996.46
2022-11-04T05:53:57.559Z,996.44
2022-11-04T05:54:57.499Z,996.43
2022-11-04T05:55:57.473Z,996.41
2022-11-04T05:56:57.537Z,996.38
2022-11-04T05:57:57.479Z,996.37
2022-11-04T05:58:57.465Z,996.36
2022-11-04T05:59:57.479Z,996.36
2022-11-04T06:00:57.476Z,996.38
2022-11-04T06:01:57.498Z,996.39
2022-11-04T06:02:57.585Z,996.41
2022-11-04T06:03:57.381Z,996.42
2022-11-04T06:04:57.396Z,996.44
2022-11-04T06:05:57.383Z,996.44
2022-11-04T06:06:57.400Z,996.44
2022-11-04T06:07:57.336Z,996.44
2022-11-04T06:08:57.339Z,996.44
2022-11-04T06:09:57.334Z,996.44
2022-11-04T06:10:57.362Z,996.43
2022-11-04T06:11:57.335Z,996.42
2022-11-04T06:12:57.354Z,996.41
2022-11-04T06:13:57.280Z,996.39
2022-11-04T06:14:57.306Z,996.37
2022-11-04T06:15:57.258Z,996.38
2022-11-04T06:16:57.257Z,996.39
2022-11-04T06:17:57.295Z,996.41
2022-11-04T06:19:01.479Z,996.42
2022-11-04T06:19:57.295Z,996.42
2022-11-04T06:20:57.241Z,996.41
2022-11-04T06:21:57.234Z,996.39
2022-11-04T06:22:57.250Z,996.41
2022-11-04T06:23:57.199Z,996.43
2022-11-04T06:24:57.307Z,996.46
2022-11-04T06:25:57.162Z,996.51
2022-11-04T06:26:57.214Z,996.56
2022-11-04T06:27:57.182Z,996.59
2022-11-04T06:28:58.153Z,996.64
2022-11-04T06:29:57.112Z,996.66
2022-11-04T06:30:57.118Z,996.65
2022-11-04T06:31:57.112Z,996.64
2022-11-04T06:32:57.156Z,996.68
2022-11-04T06:33:57.106Z,996.72
2022-11-04T06:34:57.079Z,996.80
2022-11-04T06:35:57.079Z,996.86
2022-11-04T06:36:57.070Z,996.90
2022-11-04T06:37:57.063Z,996.88
2022-11-04T06:39:03.016Z,996.86
2022-11-04T06:39:57.011Z,996.86
2022-11-04T06:40:57.084Z,996.85
2022-11-04T06:41:59.557Z,996.85
2022-11-04T06:42:57.018Z,996.84
2022-11-04T06:43:57.163Z,996.85
2022-11-04T06:44:56.990Z,996.87
2022-11-04T06:45:56.963Z,996.88
2022-11-04T06:46:56.999Z,996.90
2022-11-04T06:47:56.934Z,996.90
2022-11-04T06:48:56.934Z,996.88
2022-11-04T06:49:56.917Z,996.87
2022-11-04T06:50:56.901Z,996.87
2022-11-04T06:51:56.887Z,996.84
2022-11-04T06:52:56.893Z,996.84
2022-11-04T06:53:56.887Z,996.84
2022-11-04T06:54:56.889Z,996.83
2022-11-04T06:55:56.834Z,996.83
2022-11-04T06:56:56.850Z,996.86
2022-11-04T06:57:56.898Z,996.89
2022-11-04T06:58:56.840Z,996.92
2022-11-04T06:59:56.822Z,996.93
2022-11-04T07:00:56.941Z,996.96
2022-11-04T07:01:56.941Z,996.96
2022-11-04T07:02:56.904Z,997.00
2022-11-04T07:03:56.814Z,997.04
2022-11-04T07:05:56.768Z,997.10
2022-11-04T07:06:56.731Z,997.13
2022-11-04T07:07:56.711Z,997.16
2022-11-04T07:08:56.742Z,997.18
2022-11-04T07:09:56.725Z,997.19
2022-11-04T07:10:56.717Z,997.19
2022-11-04T07:11:56.712Z,997.18
2022-11-04T07:12:56.660Z,997.18
2022-11-04T07:13:56.644Z,997.18
2022-11-04T07:14:56.647Z,997.18
2022-11-04T07:15:56.648Z,997.16
2022-11-04T07:16:56.680Z,997.17
2022-11-04T07:17:56.637Z,997.18
2022-11-04T07:18:57.519Z,997.19
2022-11-04T07:19:56.625Z,997.20
2022-11-04T07:20:56.618Z,997.22
2022-11-04T07:21:56.610Z,997.23
2022-11-04T07:22:56.556Z,997.24
2022-11-04T07:23:56.539Z,997.25
2022-11-04T07:24:56.688Z,997.24
2022-11-04T07:25:56.545Z,997.25
2022-11-04T07:26:56.566Z,997.27
2022-11-04T07:27:59.483Z,997.29
2022-11-04T07:28:56.537Z,997.29
2022-11-04T07:29:56.479Z,997.29
2022-11-04T07:30:56.477Z,997.30
2022-11-04T07:31:56.471Z,997.30
2022-11-04T07:32:56.472Z,997.31
2022-11-04T07:33:56.464Z,997.32
2022-11-04T07:34:56.440Z,997.32
2022-11-04T07:35:58.265Z,997.32
2022-11-04T07:36:56.495Z,997.32
2022-11-04T07:37:56.387Z,997.33
2022-11-04T07:38:56.384Z,997.35
2022-11-04T07:39:56.415Z,997.38
2022-11-04T07:40:56.360Z,997.40
2022-11-04T07:41:59.515Z,997.42
2022-11-04T07:42:56.353Z,997.43
2022-11-04T07:43:56.328Z,997.45
2022-11-04T07:44:56.322Z,997.45
2022-11-04T07:45:56.356Z,997.45
2022-11-04T07:46:56.478Z,997.45
2022-11-04T07:47:56.305Z,997.45
2022-11-04T07:48:56.289Z,997.47
2022-11-04T07:49:56.442Z,997.48
2022-11-04T07:50:56.290Z,997.48
2022-11-04T07:51:56.284Z,997.47
2022-11-04T07:52:56.256Z,997.46
2022-11-04T07:53:56.220Z,997.45
2022-11-04T07:54:56.245Z,997.46
2022-11-04T07:55:57.056Z,997.46
2022-11-04T07:56:56.202Z,997.48
2022-11-04T07:57:56.217Z,997.49
2022-11-04T07:58:56.224Z,997.50
2022-11-04T07:59:56.182Z,997.51
2022-11-04T08:00:56.188Z,997.52
2022-11-04T08:01:57.163Z,997.53
2022-11-04T08:02:56.258Z,997.52
2022-11-04T08:03:56.221Z,997.51
2022-11-04T08:04:56.242Z,997.51
2022-11-04T08:05:56.145Z,997.47
2022-11-04T08:06:56.160Z,997.46
2022-11-04T08:07:56.190Z,997.45
2022-11-04T08:08:56.101Z,997.44
2022-11-04T08:09:56.071Z,997.43
2022-11-04T08:10:56.134Z,997.42
2022-11-04T08:11:56.073Z,997.41
2022-11-04T08:12:56.043Z,997.41
2022-11-04T08:13:56.196Z,997.41
2022-11-04T08:14:56.043Z,997.40
2022-11-04T08:15:56.041Z,997.40
2022-11-04T08:16:56.013Z,997.41
2022-11-04T08:17:55.989Z,997.42
2022-11-04T08:18:55.981Z,997.43
2022-11-04T08:19:55.988Z,997.45
2022-11-04T08:20:55.974Z,997.46
2022-11-04T08:21:55.928Z,997.48
2022-11-04T08:22:55.939Z,997.49
2022-11-04T08:23:55.909Z,997.48
2022-11-04T08:24:55.993Z,997.47
2022-11-04T08:25:55.929Z,997.48
2022-11-04T08:26:55.910Z,997.48
2022-11-04T08:28:00.682Z,997.47
2022-11-04T08:28:55.888Z,997.47
2022-11-04T08:29:55.877Z,997.47
2022-11-04T08:30:55.916Z,997.45
2022-11-04T08:31:55.986Z,997.44
2022-11-04T08:32:55.837Z,997.44
2022-11-04T08:33:55.803Z,997.44
2022-11-04T08:34:55.883Z,997.43
2022-11-04T08:35:55.801Z,997.42
2022-11-04T08:36:55.784Z,997.41
2022-11-04T08:37:55.769Z,997.41
2022-11-04T08:38:55.765Z,997.41
2022-11-04T08:39:55.762Z,997.40
2022-11-04T08:40:59.767Z,997.41
2022-11-04T08:41:57.242Z,997.41
2022-11-04T08:42:55.789Z,997.39
2022-11-04T08:43:55.700Z,997.39
2022-11-04T08:44:55.697Z,997.40
2022-11-04T08:45:55.710Z,997.40
2022-11-04T08:46:55.688Z,997.39
2022-11-04T08:47:55.669Z,997.40
2022-11-04T08:48:55.697Z,997.40
2022-11-04T08:49:55.652Z,997.40
2022-11-04T08:50:55.712Z,997.41
2022-11-04T08:51:55.626Z,997.40
2022-11-04T08:52:55.689Z,997.40
2022-11-04T08:53:55.636Z,997.38
2022-11-04T08:54:57.602Z,997.37
2022-11-04T08:55:55.594Z,997.36
2022-11-04T08:56:55.660Z,997.36
2022-11-04T08:57:55.558Z,997.34
2022-11-04T08:58:55.591Z,997.33
2022-11-04T08:59:55.575Z,997.32
2022-11-04T09:00:55.542Z,997.32
2022-11-04T09:01:55.597Z,997.31
2022-11-04T09:02:55.514Z,997.30
2022-11-04T09:03:55.547Z,997.29
2022-11-04T09:04:55.506Z,997.28
2022-11-04T09:05:55.480Z,997.27
2022-11-04T09:06:55.484Z,997.28
2022-11-04T09:07:55.464Z,997.28
2022-11-04T09:08:55.442Z,997.29
2022-11-04T09:09:55.469Z,997.30
2022-11-04T09:10:55.427Z,997.31
2022-11-04T09:11:55.462Z,997.33
2022-11-04T09:12:55.398Z,997.35
2022-11-04T09:13:55.413Z,997.37
2022-11-04T09:14:55.401Z,997.39
2022-11-04T09:15:55.396Z,997.39
2022-11-04T09:16:55.389Z,997.39
2022-11-04T09:17:55.368Z,997.38
2022-11-04T09:18:55.351Z,997.39
2022-11-04T09:19:55.323Z,997.38
2022-11-04T09:20:55.336Z,997.39
2022-11-04T09:21:55.358Z,997.40
2022-11-04T09:22:55.322Z,997.42
2022-11-04T09:23:55.294Z,997.43
2022-11-04T09:24:55.296Z,997.43
2022-11-04T09:25:55.292Z,997.42
2022-11-04T09:26:55.255Z,997.43
2022-11-04T09:27:55.256Z,997.43
2022-11-04T09:28:55.287Z,997.44
2022-11-04T09:29:55.215Z,997.45
2022-11-04T09:30:55.248Z,997.45
2022-11-04T09:31:55.217Z,997.45
2022-11-04T09:32:55.223Z,997.45
2022-11-04T09:33:55.206Z,997.46
2022-11-04T09:34:55.191Z,997.45
2022-11-04T09:35:55.189Z,997.44
2022-11-04T09:36:55.171Z,997.43
2022-11-04T09:37:55.159Z,997.42
2022-11-04T09:38:55.214Z,997.42
2022-11-04T09:39:55.132Z,997.42
2022-11-04T09:40:55.141Z,997.43
2022-11-04T09:41:55.113Z,997.44
2022-11-04T09:42:55.095Z,997.45
2022-11-04T09:43:55.078Z,997.46
2022-11-04T09:45:21.163Z,997.47
2022-11-04T09:45:55.083Z,997.47
2022-11-04T09:46:55.083Z,997.48
2022-11-04T09:47:55.096Z,997.48
2022-11-04T09:48:55.077Z,997.48
2022-11-04T09:49:55.056Z,997.49
2022-11-04T09:50:55.030Z,997.50
2022-11-04T09:51:55.919Z,997.52
2022-11-04T09:52:55.012Z,997.53
2022-11-04T09:53:55.137Z,997.55
2022-11-04T09:54:55.644Z,997.57
2022-11-04T09:55:55.160Z,997.58
2022-11-04T09:56:55.254Z,997.58
2022-11-04T09:57:55.034Z,997.59
2022-11-04T09:58:54.939Z,997.60
2022-11-04T09:59:54.973Z,997.61
2022-11-04T10:00:55.091Z,997.62
2022-11-04T10:01:55.382Z,997.63
2022-11-04T10:02:55.052Z,997.63
2022-11-04T10:03:55.354Z,997.63
2022-11-04T10:04:54.931Z,997.64
2022-11-04T10:05:54.985Z,997.63
2022-11-04T10:06:54.921Z,997.63
2022-11-04T10:07:54.975Z,997.63
2022-11-04T10:08:54.870Z,997.63
2022-11-04T10:09:54.825Z,997.64
2022-11-04T10:10:54.823Z,997.65
2022-11-04T10:11:54.847Z,997.66
2022-11-04T10:12:54.793Z,997.67
2022-11-04T10:13:54.804Z,997.67
2022-11-04T10:14:54.755Z,997.67
2022-11-04T10:15:54.773Z,997.67
2022-11-04T10:16:55.537Z,997.68
2022-11-04T10:17:54.784Z,997.68
2022-11-04T10:18:54.752Z,997.68
2022-11-04T10:19:54.766Z,997.69
2022-11-04T10:20:54.705Z,997.68
2022-11-04T10:21:54.807Z,997.65
2022-11-04T10:22:54.700Z,997.64
2022-11-04T10:23:54.685Z,997.63
2022-11-04T10:24:54.807Z,997.63
2022-11-04T10:25:54.853Z,997.64
2022-11-04T10:26:59.927Z,997.65
2022-11-04T10:27:54.664Z,997.66
2022-11-04T10:28:54.618Z,997.67
2022-11-04T10:29:54.670Z,997.66
2022-11-04T10:30:54.673Z,997.66
2022-11-04T10:31:54.630Z,997.67
2022-11-04T10:32:54.884Z,997.66
2022-11-04T10:33:54.677Z,997.67
2022-11-04T10:34:54.591Z,997.66
2022-11-04T10:35:54.656Z,997.66
2022-11-04T10:36:54.553Z,997.66
2022-11-04T10:37:54.602Z,997.66
2022-11-04T10:38:54.527Z,997.66
2022-11-04T10:39:54.522Z,997.64
2022-11-04T10:40:55.050Z,997.65
2022-11-04T10:41:54.500Z,997.63
2022-11-04T10:42:54.509Z,997.62
2022-11-04T10:43:54.477Z,997.62
2022-11-04T10:44:54.463Z,997.62
2022-11-04T10:45:54.516Z,997.61
2022-11-04T10:46:54.862Z,997.60
2022-11-04T10:47:54.477Z,997.59
2022-11-04T10:48:54.496Z,997.57
2022-11-04T10:50:22.357Z,997.55
2022-11-04T10:50:54.434Z,997.54
2022-11-04T10:51:54.429Z,997.52
2022-11-04T10:52:54.401Z,997.50
2022-11-04T10:53:54.472Z,997.49
2022-11-04T10:54:54.371Z,997.48
2022-11-04T10:55:54.342Z,997.45
2022-11-04T10:56:54.505Z,997.43
2022-11-04T10:57:54.436Z,997.42
2022-11-04T10:59:16.311Z,997.40
2022-11-04T10:59:54.391Z,997.39
2022-11-04T11:00:54.591Z,997.38
2022-11-04T11:01:54.455Z,997.38
2022-11-04T11:02:54.310Z,997.38
2022-11-04T11:03:54.267Z,997.39
2022-11-04T11:04:54.785Z,997.39
2022-11-04T11:05:54.250Z,997.38
2022-11-04T11:06:54.277Z,997.39
2022-11-04T11:07:54.310Z,997.39
2022-11-04T11:08:54.229Z,997.39
2022-11-04T11:09:54.784Z,997.38
2022-11-04T11:10:54.198Z,997.38
2022-11-04T11:11:54.179Z,997.38
2022-11-04T11:12:54.279Z,997.38
2022-11-04T11:13:54.269Z,997.39
2022-11-04T11:14:54.226Z,997.39
2022-11-04T11:15:54.194Z,997.38
2022-11-04T11:16:54.216Z,997.41
2022-11-04T11:17:54.228Z,997.40
2022-11-04T11:18:54.272Z,997.41
2022-11-04T11:19:54.164Z,997.40
2022-11-04T11:20:54.161Z,997.42
2022-11-04T11:21:54.342Z,997.42
2022-11-04T11:22:54.306Z,997.42
2022-11-04T11:23:54.510Z,997.42
2022-11-04T11:24:54.055Z,997.41
2022-11-04T11:25:54.079Z,997.40
2022-11-04T11:26:54.135Z,997.39
2022-11-04T11:27:54.186Z,997.37
2022-11-04T11:28:58.559Z,997.35
2022-11-04T11:29:54.054Z,997.34
2022-11-04T11:30:54.049Z,997.34
2022-11-04T11:31:54.047Z,997.32
2022-11-04T11:32:53.973Z,997.33
2022-11-04T11:33:54.077Z,997.33
2022-11-04T11:34:53.969Z,997.33
2022-11-04T11:35:54.042Z,997.33
2022-11-04T11:36:53.950Z,997.34
2022-11-04T11:37:53.902Z,997.34
2022-11-04T11:38:53.900Z,997.34
2022-11-04T11:39:53.909Z,997.33
2022-11-04T11:41:22.925Z,997.33
2022-11-04T11:41:53.907Z,997.31
2022-11-04T11:42:53.869Z,997.30
2022-11-04T11:43:53.854Z,997.29
2022-11-04T11:44:53.842Z,997.28
2022-11-04T11:45:53.893Z,997.28
2022-11-04T11:46:53.807Z,997.28
2022-11-04T11:47:53.868Z,997.27
2022-11-04T11:48:53.817Z,997.28
2022-11-04T11:49:53.787Z,997.28
2022-11-04T11:50:53.832Z,997.28
2022-11-04T11:51:53.786Z,997.28
2022-11-04T11:52:54.752Z,997.27
2022-11-04T11:53:53.792Z,997.27
2022-11-04T11:54:53.800Z,997.27
2022-11-04T11:55:53.767Z,997.28
2022-11-04T12:01:02.085Z,997.30
2022-11-04T12:01:53.914Z,997.31
2022-11-04T12:02:54.080Z,997.32
2022-11-04T12:09:53.744Z,997.37
2022-11-04T12:10:53.647Z,997.38
2022-11-04T12:11:53.618Z,997.37
2022-11-04T12:12:53.728Z,997.36
2022-11-04T12:13:53.606Z,997.35
2022-11-04T12:14:53.658Z,997.34
2022-11-04T12:15:53.545Z,997.32
2022-11-04T12:16:53.616Z,997.31
2022-11-04T12:17:53.512Z,997.32
2022-11-04T12:18:53.511Z,997.31
2022-11-04T12:19:53.541Z,997.31
2022-11-04T12:20:53.498Z,997.31
2022-11-04T12:21:53.519Z,997.33
2022-11-04T12:22:53.521Z,997.31
2022-11-04T12:23:53.453Z,997.32
2022-11-04T12:24:53.648Z,997.32
2022-11-04T12:25:53.824Z,997.32
2022-11-04T12:26:53.870Z,997.33
2022-11-04T12:27:53.482Z,997.32
2022-11-04T12:28:53.463Z,997.31
2022-11-04T12:29:53.391Z,997.29
2022-11-04T12:30:53.413Z,997.29
2022-11-04T12:31:53.476Z,997.27
2022-11-04T12:32:53.358Z,997.27
2022-11-04T12:33:53.371Z,997.26
2022-11-04T12:34:53.408Z,997.27
2022-11-04T12:35:53.424Z,997.26
2022-11-04T12:36:53.383Z,997.26
2022-11-04T12:37:53.414Z,997.25
2022-11-04T12:38:53.370Z,997.26
2022-11-04T12:39:53.326Z,997.26